sensor_id;sensor_type;location;lat;lon;timestamp;temperature;humidity
23251;DHT22;11794;49.730;10.088;2023-04-24T00:00:15;10.90;99.90
23251;DHT22;11794;49.730;10.088;2023-04-24T00:02:42;11.00;99.90
23251;DHT22;11794;49.730;10.088;2023-04-24T00:05:15;11.00;99.90
23251;DHT22;11794;49.730;10.088;2023-04-24T00:07:43;11.00;99.90
23251;DHT22;11794;49.730;10.088;2023-04-24T00:10:09;11.10;99.90
23251;DHT22;11794;49.730;10.088;2023-04-24T00:12:35;11.10;99.90
23251;DHT22;11794;49.730;10.088;2023-04-24T00:15:01;11.10;99.90
23251;DHT22;11794;49.730;10.088;2023-04-24T00:17:27;11.10;99.90
23251;DHT22;11794;49.730;10.088;2023-04-24T00:19:52;11.10;99.90
23251;DHT22;11794;49.730;10.088;2023-04-24T00:22:24;11.10;99.90
23251;DHT22;11794;49.730;10.088;2023-04-24T00:24:50;11.00;99.90
23251;DHT22;11794;49.730;10.088;2023-04-24T00:27:15;11.10;99.90
23251;DHT22;11794;49.730;10.088;2023-04-24T00:29:41;11.10;99.90
23251;DHT22;11794;49.730;10.088;2023-04-24T00:32:06;11.10;99.90
23251;DHT22;11794;49.730;10.088;2023-04-24T00:34:32;11.00;99.90
23251;DHT22;11794;49.730;10.088;2023-04-24T00:36:57;11.10;99.90
23251;DHT22;11794;49.730;10.088;2023-04-24T00:39:23;11.10;99.90
23251;DHT22;11794;49.730;10.088;2023-04-24T00:41:49;11.10;99.90
23251;DHT22;11794;49.730;10.088;2023-04-24T00:44:16;11.10;99.90
23251;DHT22;11794;49.730;10.088;2023-04-24T00:46:42;11.10;99.90
23251;DHT22;11794;49.730;10.088;2023-04-24T00:49:08;11.00;99.90
23251;DHT22;11794;49.730;10.088;2023-04-24T00:51:33;11.00;99.90
23251;DHT22;11794;49.730;10.088;2023-04-24T00:54:00;11.10;99.90
23251;DHT22;11794;49.730;10.088;2023-04-24T00:56:26;11.10;99.90
23251;DHT22;11794;49.730;10.088;2023-04-24T00:58:52;11.10;99.90
23251;DHT22;11794;49.730;10.088;2023-04-24T01:01:21;11.00;99.90
23251;DHT22;11794;49.730;10.088;2023-04-24T01:03:49;11.00;99.90
23251;DHT22;11794;49.730;10.088;2023-04-24T01:06:16;11.00;99.90
23251;DHT22;11794;49.730;10.088;2023-04-24T01:08:41;11.00;99.90
23251;DHT22;11794;49.730;10.088;2023-04-24T01:11:07;11.00;99.90
23251;DHT22;11794;49.730;10.088;2023-04-24T01:13:33;11.00;99.90
23251;DHT22;11794;49.730;10.088;2023-04-24T01:15:59;10.90;99.90
23251;DHT22;11794;49.730;10.088;2023-04-24T01:18:26;10.90;99.90
23251;DHT22;11794;49.730;10.088;2023-04-24T01:20:53;10.80;99.90
23251;DHT22;11794;49.730;10.088;2023-04-24T01:23:21;10.80;99.90
23251;DHT22;11794;49.730;10.088;2023-04-24T01:25:49;10.80;99.90
23251;DHT22;11794;49.730;10.088;2023-04-24T01:28:15;10.80;99.90
23251;DHT22;11794;49.730;10.088;2023-04-24T01:30:41;10.80;99.90
23251;DHT22;11794;49.730;10.088;2023-04-24T01:33:07;10.70;99.90
23251;DHT22;11794;49.730;10.088;2023-04-24T01:35:33;10.70;99.90
23251;DHT22;11794;49.730;10.088;2023-04-24T01:37:58;10.70;99.90
23251;DHT22;11794;49.730;10.088;2023-04-24T01:40:24;10.70;99.90
23251;DHT22;11794;49.730;10.088;2023-04-24T01:42:50;10.70;99.90
23251;DHT22;11794;49.730;10.088;2023-04-24T01:45:15;10.70;99.90
23251;DHT22;11794;49.730;10.088;2023-04-24T01:47:41;10.80;99.90
23251;DHT22;11794;49.730;10.088;2023-04-24T01:50:07;10.80;99.90
23251;DHT22;11794;49.730;10.088;2023-04-24T01:52:33;10.80;99.90
23251;DHT22;11794;49.730;10.088;2023-04-24T01:55:00;10.80;99.90
23251;DHT22;11794;49.730;10.088;2023-04-24T01:57:26;10.80;99.90
23251;DHT22;11794;49.730;10.088;2023-04-24T01:59:51;10.90;99.90
23251;DHT22;11794;49.730;10.088;2023-04-24T02:02:17;10.90;99.90
23251;DHT22;11794;49.730;10.088;2023-04-24T02:04:43;10.90;99.90
23251;DHT22;11794;49.730;10.088;2023-04-24T02:07:08;10.80;99.90
23251;DHT22;11794;49.730;10.088;2023-04-24T02:09:34;10.80;99.90
23251;DHT22;11794;49.730;10.088;2023-04-24T02:11:59;10.80;99.90
23251;DHT22;11794;49.730;10.088;2023-04-24T02:14:26;10.70;99.90
23251;DHT22;11794;49.730;10.088;2023-04-24T02:16:51;10.70;99.90
23251;DHT22;11794;49.730;10.088;2023-04-24T02:19:17;10.70;99.90
23251;DHT22;11794;49.730;10.088;2023-04-24T02:21:42;10.60;99.90
23251;DHT22;11794;49.730;10.088;2023-04-24T02:24:08;10.60;99.90
23251;DHT22;11794;49.730;10.088;2023-04-24T02:26:33;10.60;99.90
23251;DHT22;11794;49.730;10.088;2023-04-24T02:28:59;10.60;99.90
23251;DHT22;11794;49.730;10.088;2023-04-24T02:31:25;10.50;99.90
23251;DHT22;11794;49.730;10.088;2023-04-24T02:33:50;10.60;99.90
23251;DHT22;11794;49.730;10.088;2023-04-24T02:36:16;10.50;99.90
23251;DHT22;11794;49.730;10.088;2023-04-24T02:38:41;10.50;99.90
23251;DHT22;11794;49.730;10.088;2023-04-24T02:41:07;10.50;99.90
23251;DHT22;11794;49.730;10.088;2023-04-24T02:43:33;10.40;99.90
23251;DHT22;11794;49.730;10.088;2023-04-24T02:45:59;10.40;99.90
23251;DHT22;11794;49.730;10.088;2023-04-24T02:48:24;10.50;99.90
23251;DHT22;11794;49.730;10.088;2023-04-24T02:50:50;10.40;99.90
23251;DHT22;11794;49.730;10.088;2023-04-24T02:53:16;10.40;99.90
23251;DHT22;11794;49.730;10.088;2023-04-24T02:55:42;10.40;99.90
23251;DHT22;11794;49.730;10.088;2023-04-24T02:58:07;10.40;99.90
23251;DHT22;11794;49.730;10.088;2023-04-24T03:00:33;10.30;99.90
23251;DHT22;11794;49.730;10.088;2023-04-24T03:02:58;10.30;99.90
23251;DHT22;11794;49.730;10.088;2023-04-24T03:05:25;10.40;99.90
23251;DHT22;11794;49.730;10.088;2023-04-24T03:07:50;10.30;99.90
23251;DHT22;11794;49.730;10.088;2023-04-24T03:10:18;10.30;99.90
23251;DHT22;11794;49.730;10.088;2023-04-24T03:12:43;10.30;99.90
23251;DHT22;11794;49.730;10.088;2023-04-24T03:15:09;10.20;99.90
23251;DHT22;11794;49.730;10.088;2023-04-24T03:17:35;10.20;99.90
23251;DHT22;11794;49.730;10.088;2023-04-24T03:20:01;10.20;99.90
23251;DHT22;11794;49.730;10.088;2023-04-24T03:22:26;10.20;99.90
23251;DHT22;11794;49.730;10.088;2023-04-24T03:24:52;10.20;99.90
23251;DHT22;11794;49.730;10.088;2023-04-24T03:27:17;10.20;99.90
23251;DHT22;11794;49.730;10.088;2023-04-24T03:29:43;10.10;99.90
23251;DHT22;11794;49.730;10.088;2023-04-24T03:32:08;10.20;99.90
23251;DHT22;11794;49.730;10.088;2023-04-24T03:34:34;10.10;99.90
23251;DHT22;11794;49.730;10.088;2023-04-24T03:37:00;10.10;99.90
23251;DHT22;11794;49.730;10.088;2023-04-24T03:39:25;10.00;99.90
23251;DHT22;11794;49.730;10.088;2023-04-24T03:41:51;10.00;99.90
23251;DHT22;11794;49.730;10.088;2023-04-24T03:44:16;9.90;99.90
23251;DHT22;11794;49.730;10.088;2023-04-24T03:46:42;10.00;99.90
23251;DHT22;11794;49.730;10.088;2023-04-24T03:49:07;10.00;99.90
23251;DHT22;11794;49.730;10.088;2023-04-24T03:51:33;10.00;99.90
23251;DHT22;11794;49.730;10.088;2023-04-24T03:53:58;10.00;99.90
23251;DHT22;11794;49.730;10.088;2023-04-24T03:56:24;9.90;99.90
23251;DHT22;11794;49.730;10.088;2023-04-24T03:58:50;9.90;99.90
23251;DHT22;11794;49.730;10.088;2023-04-24T04:01:15;9.90;99.90
23251;DHT22;11794;49.730;10.088;2023-04-24T04:03:41;9.90;99.90
23251;DHT22;11794;49.730;10.088;2023-04-24T04:06:07;9.90;99.90
23251;DHT22;11794;49.730;10.088;2023-04-24T04:08:32;10.00;99.90
23251;DHT22;11794;49.730;10.088;2023-04-24T04:10:58;10.00;99.90
23251;DHT22;11794;49.730;10.088;2023-04-24T04:13:23;10.00;99.90
23251;DHT22;11794;49.730;10.088;2023-04-24T04:15:49;10.00;99.90
23251;DHT22;11794;49.730;10.088;2023-04-24T04:18:15;9.90;99.90
23251;DHT22;11794;49.730;10.088;2023-04-24T04:20:40;9.90;99.90
23251;DHT22;11794;49.730;10.088;2023-04-24T04:23:06;9.90;99.90
23251;DHT22;11794;49.730;10.088;2023-04-24T04:25:31;9.90;99.90
23251;DHT22;11794;49.730;10.088;2023-04-24T04:27:58;9.90;99.90
23251;DHT22;11794;49.730;10.088;2023-04-24T04:30:24;9.90;99.90
23251;DHT22;11794;49.730;10.088;2023-04-24T04:32:51;9.90;99.90
23251;DHT22;11794;49.730;10.088;2023-04-24T04:35:16;9.90;99.90
23251;DHT22;11794;49.730;10.088;2023-04-24T04:37:42;9.90;99.90
23251;DHT22;11794;49.730;10.088;2023-04-24T04:40:08;9.90;99.90
23251;DHT22;11794;49.730;10.088;2023-04-24T04:42:37;9.90;99.90
23251;DHT22;11794;49.730;10.088;2023-04-24T04:45:07;9.70;99.90
23251;DHT22;11794;49.730;10.088;2023-04-24T04:47:34;9.60;99.90
23251;DHT22;11794;49.730;10.088;2023-04-24T04:50:00;9.60;99.90
23251;DHT22;11794;49.730;10.088;2023-04-24T04:52:25;9.60;99.90
23251;DHT22;11794;49.730;10.088;2023-04-24T04:54:52;9.60;99.90
23251;DHT22;11794;49.730;10.088;2023-04-24T04:57:17;9.70;99.90
23251;DHT22;11794;49.730;10.088;2023-04-24T04:59:43;9.70;99.90
23251;DHT22;11794;49.730;10.088;2023-04-24T05:02:09;9.80;99.90
23251;DHT22;11794;49.730;10.088;2023-04-24T05:04:34;9.90;99.90
23251;DHT22;11794;49.730;10.088;2023-04-24T05:07:00;10.00;99.90
23251;DHT22;11794;49.730;10.088;2023-04-24T05:09:25;10.10;99.90
23251;DHT22;11794;49.730;10.088;2023-04-24T05:11:53;10.10;99.90
23251;DHT22;11794;49.730;10.088;2023-04-24T05:14:18;10.20;99.90
23251;DHT22;11794;49.730;10.088;2023-04-24T05:16:44;10.20;99.90
23251;DHT22;11794;49.730;10.088;2023-04-24T05:19:10;10.20;99.90
23251;DHT22;11794;49.730;10.088;2023-04-24T05:21:37;10.10;99.90
23251;DHT22;11794;49.730;10.088;2023-04-24T05:24:02;10.10;99.90
23251;DHT22;11794;49.730;10.088;2023-04-24T05:26:28;10.10;99.90
23251;DHT22;11794;49.730;10.088;2023-04-24T05:28:53;10.00;99.90
23251;DHT22;11794;49.730;10.088;2023-04-24T05:31:19;10.00;99.90
23251;DHT22;11794;49.730;10.088;2023-04-24T05:33:45;10.00;99.90
23251;DHT22;11794;49.730;10.088;2023-04-24T05:36:10;10.00;99.90
23251;DHT22;11794;49.730;10.088;2023-04-24T05:38:36;10.10;99.90
23251;DHT22;11794;49.730;10.088;2023-04-24T05:41:01;10.10;99.90
23251;DHT22;11794;49.730;10.088;2023-04-24T05:43:27;10.00;99.90
23251;DHT22;11794;49.730;10.088;2023-04-24T05:45:52;10.00;99.90
23251;DHT22;11794;49.730;10.088;2023-04-24T05:48:18;10.10;99.90
23251;DHT22;11794;49.730;10.088;2023-04-24T05:50:44;10.10;99.90
23251;DHT22;11794;49.730;10.088;2023-04-24T05:53:10;10.10;99.90
23251;DHT22;11794;49.730;10.088;2023-04-24T05:55:36;10.20;99.90
23251;DHT22;11794;49.730;10.088;2023-04-24T05:58:02;10.10;99.90
23251;DHT22;11794;49.730;10.088;2023-04-24T06:00:27;10.10;99.90
23251;DHT22;11794;49.730;10.088;2023-04-24T06:02:53;10.10;99.90
23251;DHT22;11794;49.730;10.088;2023-04-24T06:05:19;10.10;99.90
23251;DHT22;11794;49.730;10.088;2023-04-24T06:07:45;10.10;99.90
23251;DHT22;11794;49.730;10.088;2023-04-24T06:10:11;10.00;99.90
23251;DHT22;11794;49.730;10.088;2023-04-24T06:12:36;10.00;99.90
23251;DHT22;11794;49.730;10.088;2023-04-24T06:15:03;10.00;99.90
23251;DHT22;11794;49.730;10.088;2023-04-24T06:17:28;10.20;99.90
23251;DHT22;11794;49.730;10.088;2023-04-24T06:19:54;10.40;99.90
23251;DHT22;11794;49.730;10.088;2023-04-24T06:22:19;10.70;99.90
23251;DHT22;11794;49.730;10.088;2023-04-24T06:24:45;10.70;99.90
23251;DHT22;11794;49.730;10.088;2023-04-24T06:27:10;10.90;99.90
23251;DHT22;11794;49.730;10.088;2023-04-24T06:29:36;11.00;99.90
23251;DHT22;11794;49.730;10.088;2023-04-24T06:32:02;11.00;99.90
23251;DHT22;11794;49.730;10.088;2023-04-24T06:34:27;11.00;99.90
23251;DHT22;11794;49.730;10.088;2023-04-24T06:36:54;10.90;99.90
23251;DHT22;11794;49.730;10.088;2023-04-24T06:39:20;10.80;99.90
23251;DHT22;11794;49.730;10.088;2023-04-24T06:41:45;11.20;99.90
23251;DHT22;11794;49.730;10.088;2023-04-24T06:44:11;11.30;99.90
23251;DHT22;11794;49.730;10.088;2023-04-24T06:46:36;11.40;99.90
23251;DHT22;11794;49.730;10.088;2023-04-24T06:49:02;11.50;99.90
23251;DHT22;11794;49.730;10.088;2023-04-24T06:51:27;11.40;99.90
23251;DHT22;11794;49.730;10.088;2023-04-24T06:53:54;11.70;99.90
23251;DHT22;11794;49.730;10.088;2023-04-24T06:56:21;11.80;99.90
23251;DHT22;11794;49.730;10.088;2023-04-24T06:58:47;11.70;99.90
23251;DHT22;11794;49.730;10.088;2023-04-24T07:01:13;11.50;99.90
23251;DHT22;11794;49.730;10.088;2023-04-24T07:03:38;11.50;99.90
23251;DHT22;11794;49.730;10.088;2023-04-24T07:06:05;11.40;99.90
23251;DHT22;11794;49.730;10.088;2023-04-24T07:08:30;11.40;99.90
23251;DHT22;11794;49.730;10.088;2023-04-24T07:10:56;11.70;99.90
23251;DHT22;11794;49.730;10.088;2023-04-24T07:13:22;11.80;99.90
23251;DHT22;11794;49.730;10.088;2023-04-24T07:15:48;11.80;99.90
23251;DHT22;11794;49.730;10.088;2023-04-24T07:18:16;12.00;99.90
23251;DHT22;11794;49.730;10.088;2023-04-24T07:20:42;12.10;99.90
23251;DHT22;11794;49.730;10.088;2023-04-24T07:23:07;12.10;99.90
23251;DHT22;11794;49.730;10.088;2023-04-24T07:25:33;12.00;99.90
23251;DHT22;11794;49.730;10.088;2023-04-24T07:27:58;12.30;99.90
23251;DHT22;11794;49.730;10.088;2023-04-24T07:30:24;12.70;99.90
23251;DHT22;11794;49.730;10.088;2023-04-24T07:32:50;13.20;99.90
23251;DHT22;11794;49.730;10.088;2023-04-24T07:35:15;13.20;99.90
23251;DHT22;11794;49.730;10.088;2023-04-24T07:37:41;12.80;99.90
23251;DHT22;11794;49.730;10.088;2023-04-24T07:40:14;12.50;99.90
23251;DHT22;11794;49.730;10.088;2023-04-24T07:42:39;12.70;99.90
23251;DHT22;11794;49.730;10.088;2023-04-24T07:45:06;12.80;99.90
23251;DHT22;11794;49.730;10.088;2023-04-24T07:47:32;12.60;99.90
23251;DHT22;11794;49.730;10.088;2023-04-24T07:49:58;12.50;99.90
23251;DHT22;11794;49.730;10.088;2023-04-24T07:52:24;12.70;99.90
23251;DHT22;11794;49.730;10.088;2023-04-24T07:54:50;12.60;99.90
23251;DHT22;11794;49.730;10.088;2023-04-24T07:57:17;12.30;99.90
23251;DHT22;11794;49.730;10.088;2023-04-24T07:59:43;12.80;99.90
23251;DHT22;11794;49.730;10.088;2023-04-24T08:02:09;12.80;99.90
23251;DHT22;11794;49.730;10.088;2023-04-24T08:04:35;12.40;99.90
23251;DHT22;11794;49.730;10.088;2023-04-24T08:07:00;11.90;99.90
23251;DHT22;11794;49.730;10.088;2023-04-24T08:09:26;11.60;99.90
23251;DHT22;11794;49.730;10.088;2023-04-24T08:11:51;11.40;99.90
23251;DHT22;11794;49.730;10.088;2023-04-24T08:14:17;11.20;99.90
23251;DHT22;11794;49.730;10.088;2023-04-24T08:16:42;11.20;99.90
23251;DHT22;11794;49.730;10.088;2023-04-24T08:19:08;11.20;99.90
23251;DHT22;11794;49.730;10.088;2023-04-24T08:21:33;11.20;99.90
23251;DHT22;11794;49.730;10.088;2023-04-24T08:23:59;11.20;99.90
23251;DHT22;11794;49.730;10.088;2023-04-24T08:26:24;11.10;99.90
23251;DHT22;11794;49.730;10.088;2023-04-24T08:28:50;11.00;99.90
23251;DHT22;11794;49.730;10.088;2023-04-24T08:31:16;10.90;99.90
23251;DHT22;11794;49.730;10.088;2023-04-24T08:33:41;10.80;99.90
23251;DHT22;11794;49.730;10.088;2023-04-24T08:36:07;10.80;99.90
23251;DHT22;11794;49.730;10.088;2023-04-24T08:38:33;10.80;99.90
23251;DHT22;11794;49.730;10.088;2023-04-24T08:41:01;10.70;99.90
23251;DHT22;11794;49.730;10.088;2023-04-24T08:43:27;10.70;99.90
23251;DHT22;11794;49.730;10.088;2023-04-24T08:45:54;10.70;99.90
23251;DHT22;11794;49.730;10.088;2023-04-24T08:48:21;10.70;99.90
23251;DHT22;11794;49.730;10.088;2023-04-24T08:50:49;10.50;99.90
23251;DHT22;11794;49.730;10.088;2023-04-24T08:53:15;10.50;99.90
23251;DHT22;11794;49.730;10.088;2023-04-24T08:55:41;10.60;99.90
23251;DHT22;11794;49.730;10.088;2023-04-24T08:58:08;10.70;99.90
23251;DHT22;11794;49.730;10.088;2023-04-24T09:00:34;10.70;99.90
23251;DHT22;11794;49.730;10.088;2023-04-24T09:03:00;10.60;99.90
23251;DHT22;11794;49.730;10.088;2023-04-24T09:05:27;10.50;99.90
23251;DHT22;11794;49.730;10.088;2023-04-24T09:07:56;10.30;99.90
23251;DHT22;11794;49.730;10.088;2023-04-24T09:10:24;10.10;99.90
23251;DHT22;11794;49.730;10.088;2023-04-24T09:12:53;10.10;99.90
23251;DHT22;11794;49.730;10.088;2023-04-24T09:15:19;10.30;99.90
23251;DHT22;11794;49.730;10.088;2023-04-24T09:17:48;10.60;99.90
23251;DHT22;11794;49.730;10.088;2023-04-24T09:20:14;11.10;99.90
23251;DHT22;11794;49.730;10.088;2023-04-24T09:22:42;11.40;99.90
23251;DHT22;11794;49.730;10.088;2023-04-24T09:25:08;11.80;99.90
23251;DHT22;11794;49.730;10.088;2023-04-24T09:27:34;12.30;99.90
23251;DHT22;11794;49.730;10.088;2023-04-24T09:30:01;12.40;99.90
23251;DHT22;11794;49.730;10.088;2023-04-24T09:32:26;13.00;99.90
23251;DHT22;11794;49.730;10.088;2023-04-24T09:37:46;13.60;99.90
23251;DHT22;11794;49.730;10.088;2023-04-24T09:40:17;13.40;99.90
23251;DHT22;11794;49.730;10.088;2023-04-24T09:42:57;13.10;99.90
23251;DHT22;11794;49.730;10.088;2023-04-24T09:45:36;13.30;99.90
23251;DHT22;11794;49.730;10.088;2023-04-24T09:48:01;14.00;99.90
23251;DHT22;11794;49.730;10.088;2023-04-24T09:50:29;15.00;99.90
23251;DHT22;11794;49.730;10.088;2023-04-24T09:52:58;14.90;99.90
23251;DHT22;11794;49.730;10.088;2023-04-24T09:55:24;14.80;99.90
23251;DHT22;11794;49.730;10.088;2023-04-24T09:58:00;14.80;99.90
23251;DHT22;11794;49.730;10.088;2023-04-24T10:00:29;14.60;99.90
23251;DHT22;11794;49.730;10.088;2023-04-24T10:02:59;14.10;99.90
23251;DHT22;11794;49.730;10.088;2023-04-24T10:05:28;14.10;99.90
23251;DHT22;11794;49.730;10.088;2023-04-24T10:08:00;14.20;99.90
23251;DHT22;11794;49.730;10.088;2023-04-24T10:10:26;14.30;99.90
23251;DHT22;11794;49.730;10.088;2023-04-24T10:12:52;14.40;99.90
23251;DHT22;11794;49.730;10.088;2023-04-24T10:15:18;14.80;99.90
23251;DHT22;11794;49.730;10.088;2023-04-24T10:17:51;14.50;99.90
23251;DHT22;11794;49.730;10.088;2023-04-24T10:20:23;13.70;99.90
23251;DHT22;11794;49.730;10.088;2023-04-24T10:22:51;13.10;99.90
23251;DHT22;11794;49.730;10.088;2023-04-24T10:25:21;13.00;99.90
23251;DHT22;11794;49.730;10.088;2023-04-24T10:27:48;12.70;99.90
23251;DHT22;11794;49.730;10.088;2023-04-24T10:30:14;12.60;99.90
23251;DHT22;11794;49.730;10.088;2023-04-24T10:32:40;12.60;99.90
23251;DHT22;11794;49.730;10.088;2023-04-24T10:35:10;13.50;99.90
23251;DHT22;11794;49.730;10.088;2023-04-24T10:37:39;14.30;99.90
23251;DHT22;11794;49.730;10.088;2023-04-24T10:40:06;14.30;99.90
23251;DHT22;11794;49.730;10.088;2023-04-24T10:42:33;13.60;99.90
23251;DHT22;11794;49.730;10.088;2023-04-24T10:44:58;13.20;99.90
23251;DHT22;11794;49.730;10.088;2023-04-24T10:47:27;12.90;99.90
23251;DHT22;11794;49.730;10.088;2023-04-24T10:49:53;13.10;99.90
23251;DHT22;11794;49.730;10.088;2023-04-24T10:52:19;13.50;99.90
23251;DHT22;11794;49.730;10.088;2023-04-24T10:54:45;14.10;99.90
23251;DHT22;11794;49.730;10.088;2023-04-24T10:59:47;13.90;99.90
23251;DHT22;11794;49.730;10.088;2023-04-24T11:02:17;13.60;99.90
23251;DHT22;11794;49.730;10.088;2023-04-24T11:04:43;13.20;99.90
23251;DHT22;11794;49.730;10.088;2023-04-24T11:07:10;12.70;99.90
23251;DHT22;11794;49.730;10.088;2023-04-24T11:09:36;12.40;99.90
23251;DHT22;11794;49.730;10.088;2023-04-24T11:12:09;12.10;99.90
23251;DHT22;11794;49.730;10.088;2023-04-24T11:17:30;12.40;99.90
23251;DHT22;11794;49.730;10.088;2023-04-24T11:20:04;12.70;99.90
23251;DHT22;11794;49.730;10.088;2023-04-24T11:22:34;13.50;99.90
23251;DHT22;11794;49.730;10.088;2023-04-24T11:25:03;13.70;99.90
23251;DHT22;11794;49.730;10.088;2023-04-24T11:27:31;12.90;99.90
23251;DHT22;11794;49.730;10.088;2023-04-24T11:32:37;12.00;99.90
23251;DHT22;11794;49.730;10.088;2023-04-24T11:35:14;11.50;99.90
23251;DHT22;11794;49.730;10.088;2023-04-24T11:37:47;11.50;99.90
23251;DHT22;11794;49.730;10.088;2023-04-24T11:40:17;11.60;99.90
23251;DHT22;11794;49.730;10.088;2023-04-24T11:42:47;12.10;99.90
23251;DHT22;11794;49.730;10.088;2023-04-24T11:45:17;13.30;99.90
23251;DHT22;11794;49.730;10.088;2023-04-24T11:47:44;13.50;99.90
23251;DHT22;11794;49.730;10.088;2023-04-24T11:50:13;13.30;99.90
23251;DHT22;11794;49.730;10.088;2023-04-24T11:52:57;13.50;99.90
23251;DHT22;11794;49.730;10.088;2023-04-24T11:55:24;13.40;99.90
23251;DHT22;11794;49.730;10.088;2023-04-24T11:57:55;12.90;99.90
23251;DHT22;11794;49.730;10.088;2023-04-24T12:00:25;12.70;99.90
23251;DHT22;11794;49.730;10.088;2023-04-24T12:03:02;12.50;99.90
23251;DHT22;11794;49.730;10.088;2023-04-24T12:05:28;12.50;99.90
23251;DHT22;11794;49.730;10.088;2023-04-24T12:07:56;12.20;99.90
23251;DHT22;11794;49.730;10.088;2023-04-24T12:10:23;11.70;99.90
23251;DHT22;11794;49.730;10.088;2023-04-24T12:12:50;11.40;99.90
23251;DHT22;11794;49.730;10.088;2023-04-24T12:15:18;11.60;99.90
23251;DHT22;11794;49.730;10.088;2023-04-24T12:17:44;12.70;99.90
23251;DHT22;11794;49.730;10.088;2023-04-24T12:20:10;13.90;99.90
23251;DHT22;11794;49.730;10.088;2023-04-24T12:22:54;14.80;99.90
23251;DHT22;11794;49.730;10.088;2023-04-24T12:25:22;15.70;99.90
23251;DHT22;11794;49.730;10.088;2023-04-24T12:27:53;16.30;99.90
23251;DHT22;11794;49.730;10.088;2023-04-24T12:30:19;16.50;99.90
23251;DHT22;11794;49.730;10.088;2023-04-24T12:32:46;16.70;99.90
23251;DHT22;11794;49.730;10.088;2023-04-24T12:35:13;16.70;99.90
23251;DHT22;11794;49.730;10.088;2023-04-24T12:37:41;15.60;99.90
23251;DHT22;11794;49.730;10.088;2023-04-24T12:40:10;15.60;99.90
23251;DHT22;11794;49.730;10.088;2023-04-24T12:42:41;16.20;99.90
23251;DHT22;11794;49.730;10.088;2023-04-24T12:45:07;16.80;99.90
23251;DHT22;11794;49.730;10.088;2023-04-24T12:47:34;16.10;99.90
23251;DHT22;11794;49.730;10.088;2023-04-24T12:50:00;16.10;99.90
23251;DHT22;11794;49.730;10.088;2023-04-24T12:52:27;16.60;99.90
23251;DHT22;11794;49.730;10.088;2023-04-24T12:54:54;16.90;99.90
23251;DHT22;11794;49.730;10.088;2023-04-24T12:57:20;16.90;99.90
23251;DHT22;11794;49.730;10.088;2023-04-24T12:59:46;15.60;99.90
23251;DHT22;11794;49.730;10.088;2023-04-24T13:02:12;15.30;99.90
23251;DHT22;11794;49.730;10.088;2023-04-24T13:04:37;15.50;99.90
23251;DHT22;11794;49.730;10.088;2023-04-24T13:07:03;15.10;99.90
23251;DHT22;11794;49.730;10.088;2023-04-24T13:09:29;14.80;99.90
23251;DHT22;11794;49.730;10.088;2023-04-24T13:11:55;14.60;99.90
23251;DHT22;11794;49.730;10.088;2023-04-24T13:14:21;15.50;99.90
23251;DHT22;11794;49.730;10.088;2023-04-24T13:16:47;15.70;99.90
23251;DHT22;11794;49.730;10.088;2023-04-24T13:19:13;15.50;99.90
23251;DHT22;11794;49.730;10.088;2023-04-24T13:21:39;15.40;99.90
23251;DHT22;11794;49.730;10.088;2023-04-24T13:24:04;15.20;99.90
23251;DHT22;11794;49.730;10.088;2023-04-24T13:26:33;15.10;99.90
23251;DHT22;11794;49.730;10.088;2023-04-24T13:28:58;15.50;99.90
23251;DHT22;11794;49.730;10.088;2023-04-24T13:31:24;14.90;99.90
23251;DHT22;11794;49.730;10.088;2023-04-24T13:33:49;15.20;99.90
23251;DHT22;11794;49.730;10.088;2023-04-24T13:36:15;16.10;99.90
23251;DHT22;11794;49.730;10.088;2023-04-24T13:38:43;16.50;99.90
23251;DHT22;11794;49.730;10.088;2023-04-24T13:41:09;16.80;99.90
23251;DHT22;11794;49.730;10.088;2023-04-24T13:43:35;16.30;99.90
23251;DHT22;11794;49.730;10.088;2023-04-24T13:46:01;16.40;99.90
23251;DHT22;11794;49.730;10.088;2023-04-24T13:48:28;15.20;99.90
23251;DHT22;11794;49.730;10.088;2023-04-24T13:50:54;14.40;99.90
23251;DHT22;11794;49.730;10.088;2023-04-24T13:53:19;14.40;99.90
23251;DHT22;11794;49.730;10.088;2023-04-24T13:55:45;14.50;99.90
23251;DHT22;11794;49.730;10.088;2023-04-24T13:58:10;14.00;99.90
23251;DHT22;11794;49.730;10.088;2023-04-24T14:00:36;13.70;99.90
23251;DHT22;11794;49.730;10.088;2023-04-24T14:03:02;13.50;99.90
23251;DHT22;11794;49.730;10.088;2023-04-24T14:05:27;13.20;99.90
23251;DHT22;11794;49.730;10.088;2023-04-24T14:07:53;13.20;99.90
23251;DHT22;11794;49.730;10.088;2023-04-24T14:10:18;13.00;99.90
23251;DHT22;11794;49.730;10.088;2023-04-24T14:12:44;12.80;99.90
23251;DHT22;11794;49.730;10.088;2023-04-24T14:15:10;12.60;99.90
23251;DHT22;11794;49.730;10.088;2023-04-24T14:17:37;12.30;99.90
23251;DHT22;11794;49.730;10.088;2023-04-24T14:20:03;12.20;99.90
23251;DHT22;11794;49.730;10.088;2023-04-24T14:22:29;12.10;99.90
23251;DHT22;11794;49.730;10.088;2023-04-24T14:24:55;11.90;99.90
23251;DHT22;11794;49.730;10.088;2023-04-24T14:27:20;11.60;99.90
23251;DHT22;11794;49.730;10.088;2023-04-24T14:29:46;11.20;99.90
23251;DHT22;11794;49.730;10.088;2023-04-24T14:32:11;10.90;99.90
23251;DHT22;11794;49.730;10.088;2023-04-24T14:34:40;10.70;99.90
23251;DHT22;11794;49.730;10.088;2023-04-24T14:37:05;10.60;99.90
23251;DHT22;11794;49.730;10.088;2023-04-24T14:39:31;10.60;99.90
23251;DHT22;11794;49.730;10.088;2023-04-24T14:41:56;10.70;99.90
23251;DHT22;11794;49.730;10.088;2023-04-24T14:44:22;11.10;99.90
23251;DHT22;11794;49.730;10.088;2023-04-24T14:46:48;11.60;99.90
23251;DHT22;11794;49.730;10.088;2023-04-24T14:49:14;12.20;99.90
23251;DHT22;11794;49.730;10.088;2023-04-24T14:51:39;12.80;99.90
23251;DHT22;11794;49.730;10.088;2023-04-24T14:54:06;13.10;99.90
23251;DHT22;11794;49.730;10.088;2023-04-24T14:56:32;13.50;99.90
23251;DHT22;11794;49.730;10.088;2023-04-24T14:58:57;13.50;99.90
23251;DHT22;11794;49.730;10.088;2023-04-24T15:01:23;13.50;99.90
23251;DHT22;11794;49.730;10.088;2023-04-24T15:03:49;13.60;99.90
23251;DHT22;11794;49.730;10.088;2023-04-24T15:06:15;13.60;99.90
23251;DHT22;11794;49.730;10.088;2023-04-24T15:08:40;13.40;99.90
23251;DHT22;11794;49.730;10.088;2023-04-24T15:11:06;13.30;99.90
23251;DHT22;11794;49.730;10.088;2023-04-24T15:13:32;13.30;99.90
23251;DHT22;11794;49.730;10.088;2023-04-24T15:15:57;13.10;99.90
23251;DHT22;11794;49.730;10.088;2023-04-24T15:18:23;13.00;99.90
23251;DHT22;11794;49.730;10.088;2023-04-24T15:20:48;12.80;99.90
23251;DHT22;11794;49.730;10.088;2023-04-24T15:23:14;12.70;99.90